Terminal Aerodrome Forecast
Issued by NWS Lake Charles, LA

Home | Current Version | Previous Version | Text Only | Print | Product List | Glossary On
Versions: 1 2 3 4 5 6 7 8 9 10 11 12 13 14 15 16 17
681
FTUS44 KLCH 300520
TAFAEX
TAF
KAEX 300520Z 3006/3106 16013G21KT P6SM VCTS SCT030CB BKN040
     FM300700 17011KT P6SM VCSH OVC015
     FM301300 26008KT P6SM BKN025
     FM301500 28009KT P6SM BKN250=

USA.gov is the U.S. government's official web portal to all federal, state and local government web resources and services.